EZY2021 EGCC-LEPA
Flight info
| Callsign | EZY2021 |
|---|---|
| Flight time | 2h 12m |
| Altitude | 37000 |
| Route | SANBA N859 HON UN859 SOPIL DCT BALAN DCT EVPOK DCT NARAK DCT GAI DCT LOMRA DCT ROCAN DCT IBRAP N13 LORES |
| Aircraft | A320/M-SDE2E3FGHIJ1RWXYZ/LB1 |
Departure
| Time | 2026-05-04 21:47 |
|---|---|
| Airport | Manchester Airport (EGCC) |
Arrival
| Time | 2026-05-04 23:59 |
|---|---|
| Airport | Palma de Mallorca Airport (LEPA) |
| Time | Latitude | Longitude | Altitude | Speed | Heading |
|---|---|---|---|---|---|
| 2026-05-04 21:13 | 53.36820 | -2.28629 | 255 ft | 0 kts | 315° |
| 2026-05-04 21:33 | 53.36811 | -2.28614 | 255 ft | 4 kts | 315° |
| 2026-05-04 21:33 | 53.36792 | -2.28582 | 255 ft | 4 kts | 319° |
| 2026-05-04 21:33 | 53.36775 | -2.28554 | 255 ft | 4 kts | 280° |
| 2026-05-04 21:34 | 53.36777 | -2.28539 | 255 ft | 4 kts | 224° |
| 2026-05-04 21:34 | 53.36790 | -2.28519 | 255 ft | 0 kts | 224° |
| 2026-05-04 21:37 | 53.36789 | -2.28522 | 255 ft | 2 kts | 224° |
| 2026-05-04 21:37 | 53.36767 | -2.28557 | 255 ft | 5 kts | 224° |
| 2026-05-04 21:37 | 53.36744 | -2.28594 | 255 ft | 5 kts | 224° |
| 2026-05-04 21:37 | 53.36715 | -2.28642 | 255 ft | 7 kts | 224° |
| 2026-05-04 21:38 | 53.36680 | -2.28700 | 255 ft | 7 kts | 225° |
| 2026-05-04 21:38 | 53.36648 | -2.28753 | 255 ft | 6 kts | 225° |
| 2026-05-04 21:38 | 53.36602 | -2.28784 | 255 ft | 10 kts | 166° |
| 2026-05-04 21:38 | 53.36542 | -2.28694 | 255 ft | 12 kts | 134° |
| 2026-05-04 21:39 | 53.36474 | -2.28579 | 255 ft | 15 kts | 135° |
| 2026-05-04 21:39 | 53.36409 | -2.28438 | 255 ft | 16 kts | 112° |
| 2026-05-04 21:39 | 53.36343 | -2.28283 | 255 ft | 17 kts | 135° |
| 2026-05-04 21:39 | 53.36256 | -2.28137 | 255 ft | 18 kts | 135° |
| 2026-05-04 21:40 | 53.36163 | -2.27982 | 255 ft | 19 kts | 140° |
| 2026-05-04 21:40 | 53.36057 | -2.27845 | 255 ft | 18 kts | 142° |
| 2026-05-04 21:40 | 53.35949 | -2.27728 | 255 ft | 19 kts | 164° |
| 2026-05-04 21:40 | 53.35838 | -2.27731 | 253 ft | 14 kts | 182° |
| 2026-05-04 21:41 | 53.35746 | -2.27651 | 249 ft | 17 kts | 156° |
| 2026-05-04 21:41 | 53.35655 | -2.27570 | 246 ft | 12 kts | 141° |
| 2026-05-04 21:41 | 53.35625 | -2.27453 | 246 ft | 12 kts | 65° |
| 2026-05-04 21:41 | 53.35664 | -2.27364 | 253 ft | 5 kts | 51° |
| 2026-05-04 21:42 | 53.35667 | -2.27357 | 253 ft | 0 kts | 51° |
| 2026-05-04 21:42 | 53.35684 | -2.27322 | 255 ft | 11 kts | 50° |
| 2026-05-04 21:42 | 53.35757 | -2.27170 | 255 ft | 19 kts | 51° |
| 2026-05-04 21:42 | 53.35835 | -2.26982 | 255 ft | 20 kts | 59° |
| 2026-05-04 21:43 | 53.35917 | -2.26792 | 256 ft | 20 kts | 57° |
| 2026-05-04 21:43 | 53.36004 | -2.26602 | 256 ft | 21 kts | 51° |
| 2026-05-04 21:43 | 53.36097 | -2.26409 | 255 ft | 22 kts | 51° |
| 2026-05-04 21:43 | 53.36191 | -2.26248 | 255 ft | 17 kts | 33° |
| 2026-05-04 21:44 | 53.36255 | -2.26128 | 255 ft | 14 kts | 51° |
| 2026-05-04 21:44 | 53.36271 | -2.26045 | 255 ft | 0 kts | 96° |
| 2026-05-04 21:44 | 53.36271 | -2.26043 | 255 ft | 2 kts | 96° |
| 2026-05-04 21:45 | 53.36272 | -2.25981 | 255 ft | 8 kts | 79° |
| 2026-05-04 21:45 | 53.36289 | -2.25890 | 255 ft | 8 kts | 80° |
| 2026-05-04 21:45 | 53.36277 | -2.25798 | 258 ft | 7 kts | 122° |
| 2026-05-04 21:45 | 53.36250 | -2.25752 | 261 ft | 3 kts | 140° |
| 2026-05-04 21:46 | 53.36214 | -2.25760 | 260 ft | 9 kts | 222° |
| 2026-05-04 21:46 | 53.36166 | -2.25855 | 259 ft | 16 kts | 231° |
| 2026-05-04 21:46 | 53.35955 | -2.26295 | 263 ft | 86 kts | 231° |
| 2026-05-04 21:46 | 53.35436 | -2.27362 | 246 ft | 149 kts | 231° |
| 2026-05-04 21:47 | 53.34710 | -2.28904 | 493 ft | 175 kts | 231° |
| 2026-05-04 21:47 | 53.33960 | -2.30520 | 1168 ft | 177 kts | 230° |
| 2026-05-04 21:47 | 53.33195 | -2.32120 | 1899 ft | 178 kts | 229° |
| 2026-05-04 21:47 | 53.32437 | -2.33856 | 2264 ft | 197 kts | 245° |
| 2026-05-04 21:48 | 53.32347 | -2.36217 | 2507 ft | 217 kts | 285° |
| 2026-05-04 21:48 | 53.32684 | -2.38815 | 2749 ft | 242 kts | 278° |
| 2026-05-04 21:48 | 53.32568 | -2.41748 | 3096 ft | 266 kts | 250° |
| 2026-05-04 21:48 | 53.31522 | -2.44318 | 3723 ft | 272 kts | 216° |
| 2026-05-04 21:49 | 53.29815 | -2.45562 | 4510 ft | 270 kts | 183° |
| 2026-05-04 21:49 | 53.27967 | -2.45305 | 5333 ft | 267 kts | 162° |
| 2026-05-04 21:49 | 53.26226 | -2.44238 | 6159 ft | 267 kts | 149° |
| 2026-05-04 21:49 | 53.25137 | -2.43266 | 6697 ft | 268 kts | 148° |
| 2026-05-04 21:50 | 53.23478 | -2.41791 | 7499 ft | 272 kts | 149° |
| 2026-05-04 21:50 | 53.21797 | -2.40309 | 8293 ft | 275 kts | 149° |
| 2026-05-04 21:50 | 53.20096 | -2.38813 | 9065 ft | 278 kts | 149° |
| 2026-05-04 21:50 | 53.18373 | -2.37302 | 9825 ft | 281 kts | 149° |
| 2026-05-04 21:51 | 53.16628 | -2.35771 | 10554 ft | 285 kts | 149° |
| 2026-05-04 21:51 | 53.14805 | -2.34170 | 10817 ft | 308 kts | 149° |
| 2026-05-04 21:51 | 53.12837 | -2.32443 | 10985 ft | 331 kts | 150° |
| 2026-05-04 21:51 | 53.10725 | -2.30594 | 11128 ft | 353 kts | 150° |
| 2026-05-04 21:52 | 53.08533 | -2.28681 | 11514 ft | 364 kts | 150° |
| 2026-05-04 21:52 | 53.05476 | -2.26021 | 12340 ft | 370 kts | 150° |
| 2026-05-04 21:52 | 53.03956 | -2.24702 | 12753 ft | 373 kts | 150° |
| 2026-05-04 21:52 | 53.01648 | -2.22699 | 13377 ft | 376 kts | 150° |
| 2026-05-04 21:53 | 52.99318 | -2.20683 | 13973 ft | 379 kts | 150° |
| 2026-05-04 21:53 | 52.96962 | -2.18647 | 14556 ft | 383 kts | 150° |
| 2026-05-04 21:53 | 52.94593 | -2.16597 | 15120 ft | 386 kts | 150° |
| 2026-05-04 21:53 | 52.92205 | -2.14529 | 15666 ft | 389 kts | 150° |
| 2026-05-04 21:54 | 52.89795 | -2.12443 | 16199 ft | 392 kts | 150° |
| 2026-05-04 21:54 | 52.87368 | -2.10348 | 16705 ft | 395 kts | 150° |
| 2026-05-04 21:54 | 52.84921 | -2.08240 | 17203 ft | 398 kts | 150° |
| 2026-05-04 21:54 | 52.82454 | -2.06120 | 17697 ft | 401 kts | 150° |
| 2026-05-04 21:55 | 52.79976 | -2.03989 | 18174 ft | 404 kts | 150° |
| 2026-05-04 21:55 | 52.77471 | -2.01840 | 18641 ft | 406 kts | 150° |
| 2026-05-04 21:55 | 52.74954 | -1.99689 | 19096 ft | 409 kts | 150° |
| 2026-05-04 21:55 | 52.72415 | -1.97523 | 19548 ft | 412 kts | 150° |
| 2026-05-04 21:56 | 52.69866 | -1.95344 | 19979 ft | 414 kts | 150° |
| 2026-05-04 21:56 | 52.67294 | -1.93141 | 20403 ft | 417 kts | 150° |
| 2026-05-04 21:56 | 52.64713 | -1.90930 | 20818 ft | 420 kts | 150° |
| 2026-05-04 21:56 | 52.62111 | -1.88705 | 21224 ft | 422 kts | 150° |
| 2026-05-04 21:57 | 52.59492 | -1.86475 | 21630 ft | 425 kts | 150° |
| 2026-05-04 21:57 | 52.56859 | -1.84240 | 22004 ft | 427 kts | 150° |
| 2026-05-04 21:57 | 52.54211 | -1.82001 | 22372 ft | 430 kts | 151° |
| 2026-05-04 21:57 | 52.51545 | -1.79751 | 22734 ft | 432 kts | 151° |
| 2026-05-04 21:58 | 52.48866 | -1.77489 | 23079 ft | 434 kts | 151° |
| 2026-05-04 21:58 | 52.46175 | -1.75216 | 23420 ft | 436 kts | 151° |
| 2026-05-04 21:58 | 52.43467 | -1.72932 | 23756 ft | 438 kts | 151° |
| 2026-05-04 21:58 | 52.40745 | -1.70641 | 24090 ft | 441 kts | 151° |
| 2026-05-04 21:59 | 52.38010 | -1.68342 | 24415 ft | 443 kts | 151° |
| 2026-05-04 21:59 | 52.35213 | -1.66195 | 24727 ft | 446 kts | 157° |
| 2026-05-04 21:59 | 52.32255 | -1.64583 | 25029 ft | 449 kts | 160° |
| 2026-05-04 21:59 | 52.29266 | -1.63025 | 25324 ft | 451 kts | 160° |
| 2026-05-04 22:00 | 52.26268 | -1.61459 | 25612 ft | 453 kts | 160° |
| 2026-05-04 22:00 | 52.23257 | -1.59890 | 25888 ft | 455 kts | 160° |
| 2026-05-04 22:00 | 52.20230 | -1.58319 | 26157 ft | 457 kts | 160° |
| 2026-05-04 22:00 | 52.17192 | -1.56746 | 26409 ft | 459 kts | 160° |
| 2026-05-04 22:01 | 52.14148 | -1.55166 | 26672 ft | 461 kts | 160° |
| 2026-05-04 22:01 | 52.11087 | -1.53575 | 26932 ft | 462 kts | 160° |
| 2026-05-04 22:01 | 52.08009 | -1.51981 | 27185 ft | 464 kts | 160° |
| 2026-05-04 22:01 | 52.04931 | -1.50394 | 27423 ft | 466 kts | 160° |
| 2026-05-04 22:02 | 52.01841 | -1.48803 | 27753 ft | 465 kts | 160° |
| 2026-05-04 22:02 | 51.98758 | -1.47214 | 28104 ft | 464 kts | 160° |
| 2026-05-04 22:02 | 51.95682 | -1.45628 | 28453 ft | 463 kts | 160° |
| 2026-05-04 22:02 | 51.92615 | -1.44047 | 28781 ft | 463 kts | 160° |
| 2026-05-04 22:03 | 51.89544 | -1.42469 | 29123 ft | 462 kts | 160° |
| 2026-05-04 22:03 | 51.86484 | -1.40902 | 29447 ft | 461 kts | 160° |
| 2026-05-04 22:03 | 51.83425 | -1.39337 | 29771 ft | 461 kts | 160° |
| 2026-05-04 22:03 | 51.80366 | -1.37778 | 30091 ft | 460 kts | 160° |
| 2026-05-04 22:04 | 51.77317 | -1.36225 | 30416 ft | 459 kts | 160° |
| 2026-05-04 22:04 | 51.74272 | -1.34677 | 30730 ft | 459 kts | 161° |
| 2026-05-04 22:04 | 51.71229 | -1.33132 | 31040 ft | 458 kts | 160° |
| 2026-05-04 22:04 | 51.68190 | -1.31589 | 31347 ft | 458 kts | 160° |
| 2026-05-04 22:05 | 51.65152 | -1.30048 | 31641 ft | 457 kts | 160° |
| 2026-05-04 22:05 | 51.62125 | -1.28512 | 31949 ft | 456 kts | 160° |
| 2026-05-04 22:05 | 51.59098 | -1.26977 | 32244 ft | 456 kts | 160° |
| 2026-05-04 22:05 | 51.56076 | -1.25450 | 32540 ft | 455 kts | 161° |
| 2026-05-04 22:06 | 51.53052 | -1.23931 | 32827 ft | 455 kts | 161° |
| 2026-05-04 22:06 | 51.50038 | -1.22412 | 33106 ft | 454 kts | 159° |
| 2026-05-04 22:06 | 51.47133 | -1.20485 | 33372 ft | 452 kts | 153° |
| 2026-05-04 22:06 | 51.44282 | -1.18365 | 33642 ft | 451 kts | 153° |
| 2026-05-04 22:07 | 51.41434 | -1.16263 | 33913 ft | 451 kts | 153° |
| 2026-05-04 22:07 | 51.38585 | -1.14169 | 34180 ft | 450 kts | 153° |
| 2026-05-04 22:07 | 51.35741 | -1.12083 | 34440 ft | 450 kts | 153° |
| 2026-05-04 22:07 | 51.32900 | -1.10004 | 34709 ft | 449 kts | 153° |
| 2026-05-04 22:08 | 51.30062 | -1.07930 | 34977 ft | 448 kts | 153° |
| 2026-05-04 22:08 | 51.27224 | -1.05857 | 35235 ft | 448 kts | 153° |
| 2026-05-04 22:08 | 51.24393 | -1.03789 | 35478 ft | 447 kts | 153° |
| 2026-05-04 22:08 | 51.21562 | -1.01724 | 35710 ft | 447 kts | 153° |
| 2026-05-04 22:09 | 51.18735 | -0.99664 | 35935 ft | 446 kts | 154° |
| 2026-05-04 22:09 | 51.15913 | -0.97615 | 36155 ft | 446 kts | 153° |
| 2026-05-04 22:09 | 51.13089 | -0.95562 | 36361 ft | 446 kts | 153° |
| 2026-05-04 22:09 | 51.10270 | -0.93515 | 36540 ft | 446 kts | 153° |
| 2026-05-04 22:10 | 51.07449 | -0.91471 | 36728 ft | 446 kts | 154° |
| 2026-05-04 22:10 | 51.04624 | -0.89428 | 36897 ft | 446 kts | 154° |
| 2026-05-04 22:10 | 51.01806 | -0.87389 | 37071 ft | 446 kts | 154° |
| 2026-05-04 22:10 | 50.98983 | -0.85351 | 37230 ft | 446 kts | 154° |
| 2026-05-04 22:11 | 50.96165 | -0.83321 | 37383 ft | 446 kts | 154° |
| 2026-05-04 22:11 | 50.90484 | -0.79240 | 37412 ft | 449 kts | 154° |
| 2026-05-04 22:12 | 50.84849 | -0.74991 | 37414 ft | 447 kts | 147° |
| 2026-05-04 22:12 | 50.79612 | -0.69661 | 37414 ft | 447 kts | 145° |
| 2026-05-04 22:13 | 50.74384 | -0.64321 | 37413 ft | 447 kts | 145° |
| 2026-05-04 22:13 | 50.69146 | -0.59008 | 37414 ft | 448 kts | 146° |
| 2026-05-04 22:14 | 50.63901 | -0.53709 | 37417 ft | 448 kts | 146° |
| 2026-05-04 22:14 | 50.58657 | -0.48420 | 37418 ft | 448 kts | 146° |
| 2026-05-04 22:15 | 50.53407 | -0.43136 | 37420 ft | 448 kts | 146° |
| 2026-05-04 22:15 | 50.48184 | -0.37888 | 37422 ft | 448 kts | 146° |
| 2026-05-04 22:16 | 50.42923 | -0.32623 | 37421 ft | 448 kts | 146° |
| 2026-05-04 22:16 | 50.37663 | -0.27377 | 37421 ft | 448 kts | 146° |
| 2026-05-04 22:17 | 50.32405 | -0.22145 | 37420 ft | 448 kts | 146° |
| 2026-05-04 22:17 | 50.27145 | -0.16920 | 37422 ft | 448 kts | 146° |
| 2026-05-04 22:18 | 50.21876 | -0.11704 | 37418 ft | 450 kts | 146° |
| 2026-05-04 22:18 | 50.16542 | -0.06441 | 37413 ft | 457 kts | 146° |
| 2026-05-04 22:19 | 50.11100 | -0.01227 | 37411 ft | 461 kts | 152° |
| 2026-05-04 22:19 | 50.05009 | 0.01973 | 37414 ft | 465 kts | 164° |
| 2026-05-04 22:20 | 49.98732 | 0.04432 | 37412 ft | 465 kts | 164° |
| 2026-05-04 22:20 | 49.92457 | 0.06898 | 37415 ft | 465 kts | 164° |
| 2026-05-04 22:21 | 49.86175 | 0.09375 | 37418 ft | 465 kts | 164° |
| 2026-05-04 22:21 | 49.79902 | 0.11832 | 37420 ft | 465 kts | 164° |
| 2026-05-04 22:22 | 49.73617 | 0.14286 | 37421 ft | 465 kts | 164° |
| 2026-05-04 22:22 | 49.67330 | 0.16721 | 37421 ft | 465 kts | 164° |
| 2026-05-04 22:23 | 49.61058 | 0.19217 | 37422 ft | 465 kts | 163° |
| 2026-05-04 22:23 | 49.54792 | 0.21763 | 37423 ft | 466 kts | 163° |
| 2026-05-04 22:24 | 49.48525 | 0.24311 | 37424 ft | 466 kts | 163° |
| 2026-05-04 22:24 | 49.42252 | 0.26818 | 37424 ft | 466 kts | 163° |
| 2026-05-04 22:25 | 49.35973 | 0.29319 | 37426 ft | 466 kts | 163° |
| 2026-05-04 22:25 | 49.29695 | 0.31833 | 37429 ft | 466 kts | 163° |
| 2026-05-04 22:26 | 49.23432 | 0.34438 | 37430 ft | 466 kts | 162° |
| 2026-05-04 22:26 | 49.17181 | 0.37106 | 37430 ft | 466 kts | 162° |
| 2026-05-04 22:27 | 49.16920 | 0.37217 | 37431 ft | 466 kts | 162° |
| 2026-05-04 22:29 | 49.11336 | 0.39582 | 37427 ft | 466 kts | 162° |
| 2026-05-04 22:29 | 49.05227 | 0.42152 | 37431 ft | 466 kts | 163° |
| 2026-05-04 22:29 | 49.02117 | 0.43449 | 37669 ft | 456 kts | 163° |
| 2026-05-04 22:30 | 48.99064 | 0.44719 | 37504 ft | 451 kts | 163° |
| 2026-05-04 22:30 | 48.93067 | 0.47208 | 37422 ft | 445 kts | 164° |
| 2026-05-04 22:31 | 48.87103 | 0.49692 | 37463 ft | 444 kts | 163° |
| 2026-05-04 22:31 | 48.81135 | 0.52166 | 37455 ft | 445 kts | 164° |
| 2026-05-04 22:32 | 48.75150 | 0.54603 | 37413 ft | 446 kts | 165° |
| 2026-05-04 22:32 | 48.69145 | 0.56944 | 37285 ft | 445 kts | 165° |
| 2026-05-04 22:33 | 48.63140 | 0.59265 | 37010 ft | 445 kts | 165° |
| 2026-05-04 22:33 | 48.57150 | 0.61599 | 37032 ft | 445 kts | 165° |
| 2026-05-04 22:34 | 48.51154 | 0.63940 | 37027 ft | 445 kts | 165° |
| 2026-05-04 22:34 | 48.45171 | 0.66352 | 37017 ft | 446 kts | 164° |
| 2026-05-04 22:35 | 48.39185 | 0.68824 | 37008 ft | 446 kts | 164° |
| 2026-05-04 22:35 | 48.33202 | 0.71266 | 37003 ft | 446 kts | 164° |
| 2026-05-04 22:36 | 48.27206 | 0.73679 | 37008 ft | 446 kts | 164° |
| 2026-05-04 22:36 | 48.21218 | 0.76078 | 37012 ft | 445 kts | 165° |
| 2026-05-04 22:37 | 48.15219 | 0.78436 | 37014 ft | 446 kts | 165° |
| 2026-05-04 22:37 | 48.09210 | 0.80785 | 37014 ft | 446 kts | 165° |
| 2026-05-04 22:38 | 48.03193 | 0.83128 | 37018 ft | 447 kts | 165° |
| 2026-05-04 22:38 | 47.97177 | 0.85473 | 37025 ft | 447 kts | 165° |
| 2026-05-04 22:39 | 47.91146 | 0.87837 | 37023 ft | 448 kts | 165° |
| 2026-05-04 22:39 | 47.85114 | 0.90191 | 37016 ft | 448 kts | 165° |
| 2026-05-04 22:40 | 47.79081 | 0.92532 | 37008 ft | 448 kts | 165° |
| 2026-05-04 22:40 | 47.73041 | 0.94858 | 37004 ft | 448 kts | 165° |
| 2026-05-04 22:41 | 47.67006 | 0.97187 | 36998 ft | 448 kts | 165° |
| 2026-05-04 22:41 | 47.61005 | 0.99506 | 36996 ft | 448 kts | 165° |
| 2026-05-04 22:42 | 47.54963 | 1.01830 | 36996 ft | 449 kts | 165° |
| 2026-05-04 22:42 | 47.48911 | 1.04151 | 37001 ft | 449 kts | 165° |
| 2026-05-04 22:43 | 47.42810 | 1.06196 | 37003 ft | 449 kts | 174° |
| 2026-05-04 22:43 | 47.36566 | 1.06297 | 37003 ft | 449 kts | 180° |
| 2026-05-04 22:44 | 47.30308 | 1.06140 | 37007 ft | 450 kts | 180° |
| 2026-05-04 22:44 | 47.24049 | 1.05992 | 37011 ft | 450 kts | 180° |
| 2026-05-04 22:45 | 47.17794 | 1.05848 | 37017 ft | 449 kts | 180° |
| 2026-05-04 22:45 | 47.08437 | 1.05641 | 36959 ft | 441 kts | 182° |
| 2026-05-04 22:46 | 47.02426 | 1.05498 | 36924 ft | 426 kts | 182° |
| 2026-05-04 22:46 | 46.96530 | 1.05284 | 36919 ft | 423 kts | 183° |
| 2026-05-04 22:47 | 46.90655 | 1.05005 | 36928 ft | 422 kts | 184° |
| 2026-05-04 22:47 | 46.84785 | 1.04732 | 36927 ft | 422 kts | 183° |
| 2026-05-04 22:48 | 46.78913 | 1.04483 | 36935 ft | 422 kts | 183° |
| 2026-05-04 22:48 | 46.73036 | 1.04240 | 36937 ft | 422 kts | 183° |
| 2026-05-04 22:49 | 46.67161 | 1.03985 | 36938 ft | 423 kts | 183° |
| 2026-05-04 22:49 | 46.61279 | 1.03737 | 36943 ft | 423 kts | 183° |
| 2026-05-04 22:50 | 46.55401 | 1.03498 | 36943 ft | 423 kts | 183° |
| 2026-05-04 22:50 | 46.49533 | 1.04036 | 36945 ft | 426 kts | 169° |
| 2026-05-04 22:51 | 46.43762 | 1.05981 | 36950 ft | 426 kts | 169° |
| 2026-05-04 22:51 | 46.37985 | 1.07897 | 36954 ft | 425 kts | 170° |
| 2026-05-04 22:52 | 46.32219 | 1.09804 | 36953 ft | 425 kts | 169° |
| 2026-05-04 22:52 | 46.26450 | 1.11722 | 36954 ft | 425 kts | 169° |
| 2026-05-04 22:53 | 46.20725 | 1.13633 | 36952 ft | 425 kts | 169° |
| 2026-05-04 22:53 | 46.14964 | 1.15550 | 36951 ft | 425 kts | 169° |
| 2026-05-04 22:54 | 46.09165 | 1.17464 | 36952 ft | 424 kts | 170° |
| 2026-05-04 22:54 | 46.03448 | 1.19354 | 36953 ft | 424 kts | 169° |
| 2026-05-04 22:55 | 45.97691 | 1.21243 | 36953 ft | 424 kts | 170° |
| 2026-05-04 22:55 | 45.91943 | 1.23128 | 36949 ft | 424 kts | 170° |
| 2026-05-04 22:56 | 45.86193 | 1.25020 | 36952 ft | 423 kts | 170° |
| 2026-05-04 22:56 | 45.80448 | 1.26901 | 36955 ft | 423 kts | 170° |
| 2026-05-04 22:57 | 45.74708 | 1.28769 | 36957 ft | 423 kts | 170° |
| 2026-05-04 22:57 | 45.68962 | 1.30633 | 36954 ft | 423 kts | 170° |
| 2026-05-04 22:58 | 45.63216 | 1.32496 | 36951 ft | 424 kts | 170° |
| 2026-05-04 22:58 | 45.57467 | 1.34373 | 36952 ft | 424 kts | 170° |
| 2026-05-04 22:59 | 45.51712 | 1.36244 | 36954 ft | 424 kts | 170° |
| 2026-05-04 22:59 | 45.45949 | 1.38100 | 36958 ft | 424 kts | 170° |
| 2026-05-04 23:00 | 45.40191 | 1.39953 | 36963 ft | 424 kts | 170° |
| 2026-05-04 23:00 | 45.34428 | 1.41813 | 36963 ft | 425 kts | 170° |
| 2026-05-04 23:01 | 45.28660 | 1.43670 | 36966 ft | 425 kts | 170° |
| 2026-05-04 23:01 | 45.22888 | 1.45517 | 36965 ft | 425 kts | 170° |
| 2026-05-04 23:02 | 45.17120 | 1.47356 | 36965 ft | 425 kts | 170° |
| 2026-05-04 23:02 | 45.11348 | 1.49190 | 36966 ft | 425 kts | 170° |
| 2026-05-04 23:03 | 45.05569 | 1.51028 | 36968 ft | 426 kts | 170° |
| 2026-05-04 23:03 | 44.99788 | 1.52867 | 36971 ft | 427 kts | 170° |
| 2026-05-04 23:04 | 44.93989 | 1.54708 | 36972 ft | 427 kts | 170° |
| 2026-05-04 23:04 | 44.88182 | 1.56546 | 36971 ft | 427 kts | 171° |
| 2026-05-04 23:05 | 44.82381 | 1.58376 | 36975 ft | 427 kts | 171° |
| 2026-05-04 23:05 | 44.77552 | 1.59898 | 36972 ft | 428 kts | 171° |
| 2026-05-04 23:06 | 44.71739 | 1.61723 | 36976 ft | 428 kts | 171° |
| 2026-05-04 23:06 | 44.65910 | 1.63548 | 36982 ft | 429 kts | 171° |
| 2026-05-04 23:07 | 44.60087 | 1.65372 | 36983 ft | 429 kts | 171° |
| 2026-05-04 23:07 | 44.54253 | 1.67201 | 36987 ft | 430 kts | 171° |
| 2026-05-04 23:08 | 44.48419 | 1.69021 | 36988 ft | 430 kts | 171° |
| 2026-05-04 23:08 | 44.42578 | 1.70837 | 36989 ft | 430 kts | 171° |
| 2026-05-04 23:09 | 44.36741 | 1.72655 | 36989 ft | 430 kts | 171° |
| 2026-05-04 23:09 | 44.30896 | 1.74472 | 36992 ft | 430 kts | 171° |
| 2026-05-04 23:10 | 44.25033 | 1.76074 | 36993 ft | 429 kts | 174° |
| 2026-05-04 23:10 | 44.19132 | 1.77298 | 36996 ft | 429 kts | 175° |
| 2026-05-04 23:11 | 44.13224 | 1.78493 | 36998 ft | 429 kts | 175° |
| 2026-05-04 23:11 | 44.07328 | 1.79761 | 36999 ft | 429 kts | 174° |
| 2026-05-04 23:12 | 44.01428 | 1.81081 | 37004 ft | 429 kts | 174° |
| 2026-05-04 23:12 | 43.95529 | 1.82384 | 37004 ft | 429 kts | 175° |
| 2026-05-04 23:13 | 43.89607 | 1.83225 | 37005 ft | 427 kts | 179° |
| 2026-05-04 23:13 | 43.83681 | 1.83663 | 37004 ft | 426 kts | 180° |
| 2026-05-04 23:14 | 43.77755 | 1.84116 | 37005 ft | 427 kts | 179° |
| 2026-05-04 23:14 | 43.71819 | 1.84670 | 37007 ft | 427 kts | 179° |
| 2026-05-04 23:15 | 43.65884 | 1.85263 | 37007 ft | 427 kts | 179° |
| 2026-05-04 23:15 | 43.59960 | 1.85851 | 37008 ft | 427 kts | 179° |
| 2026-05-04 23:16 | 43.54056 | 1.86428 | 37009 ft | 427 kts | 179° |
| 2026-05-04 23:16 | 43.48083 | 1.87008 | 37009 ft | 428 kts | 179° |
| 2026-05-04 23:17 | 43.42149 | 1.87573 | 37009 ft | 428 kts | 179° |
| 2026-05-04 23:17 | 43.36243 | 1.88137 | 37010 ft | 428 kts | 179° |
| 2026-05-04 23:18 | 43.30263 | 1.88708 | 37011 ft | 428 kts | 180° |
| 2026-05-04 23:18 | 43.24350 | 1.89265 | 37011 ft | 428 kts | 180° |
| 2026-05-04 23:19 | 43.18374 | 1.89835 | 37009 ft | 429 kts | 180° |
| 2026-05-04 23:19 | 43.12413 | 1.90409 | 37010 ft | 429 kts | 180° |
| 2026-05-04 23:20 | 43.06460 | 1.90981 | 37007 ft | 429 kts | 180° |
| 2026-05-04 23:20 | 43.00502 | 1.91546 | 37006 ft | 429 kts | 180° |
| 2026-05-04 23:21 | 42.94545 | 1.92107 | 37001 ft | 429 kts | 180° |
| 2026-05-04 23:21 | 42.88584 | 1.92674 | 37001 ft | 430 kts | 180° |
| 2026-05-04 23:22 | 42.82617 | 1.93231 | 37000 ft | 430 kts | 180° |
| 2026-05-04 23:22 | 42.76646 | 1.93789 | 36996 ft | 430 kts | 180° |
| 2026-05-04 23:23 | 42.70675 | 1.94358 | 36994 ft | 430 kts | 180° |
| 2026-05-04 23:23 | 42.64769 | 1.95585 | 36990 ft | 437 kts | 169° |
| 2026-05-04 23:24 | 42.58891 | 1.97717 | 36991 ft | 437 kts | 170° |
| 2026-05-04 23:24 | 42.53021 | 1.99831 | 36993 ft | 436 kts | 170° |
| 2026-05-04 23:25 | 42.47147 | 2.01936 | 36993 ft | 437 kts | 171° |
| 2026-05-04 23:25 | 42.41272 | 2.04035 | 36989 ft | 436 kts | 171° |
| 2026-05-04 23:26 | 42.35388 | 2.06133 | 36993 ft | 437 kts | 171° |
| 2026-05-04 23:26 | 42.29505 | 2.08230 | 36988 ft | 437 kts | 171° |
| 2026-05-04 23:27 | 42.23623 | 2.10329 | 36985 ft | 437 kts | 171° |
| 2026-05-04 23:27 | 42.17740 | 2.12407 | 36984 ft | 437 kts | 171° |
| 2026-05-04 23:28 | 42.11852 | 2.14475 | 36981 ft | 437 kts | 171° |
| 2026-05-04 23:28 | 42.05973 | 2.16553 | 36978 ft | 437 kts | 171° |
| 2026-05-04 23:29 | 42.00092 | 2.18621 | 36976 ft | 437 kts | 171° |
| 2026-05-04 23:29 | 41.94211 | 2.20692 | 36975 ft | 437 kts | 171° |
| 2026-05-04 23:30 | 41.88332 | 2.22757 | 36977 ft | 437 kts | 171° |
| 2026-05-04 23:30 | 41.82452 | 2.24821 | 36973 ft | 437 kts | 171° |
| 2026-05-04 23:31 | 41.76560 | 2.26888 | 36974 ft | 437 kts | 171° |
| 2026-05-04 23:31 | 41.70675 | 2.28938 | 36977 ft | 437 kts | 171° |
| 2026-05-04 23:32 | 41.64785 | 2.30976 | 36978 ft | 437 kts | 171° |
| 2026-05-04 23:32 | 41.58900 | 2.33018 | 36980 ft | 437 kts | 171° |
| 2026-05-04 23:33 | 41.53015 | 2.35067 | 36978 ft | 437 kts | 171° |
| 2026-05-04 23:33 | 41.47123 | 2.37117 | 36978 ft | 437 kts | 171° |
| 2026-05-04 23:34 | 41.41232 | 2.39161 | 36979 ft | 437 kts | 171° |
| 2026-05-04 23:34 | 41.35348 | 2.41195 | 36982 ft | 438 kts | 172° |
| 2026-05-04 23:35 | 41.29456 | 2.43223 | 36978 ft | 438 kts | 172° |
| 2026-05-04 23:35 | 41.23548 | 2.45256 | 36968 ft | 437 kts | 172° |
| 2026-05-04 23:36 | 41.20624 | 2.46265 | 36660 ft | 431 kts | 172° |
| 2026-05-04 23:36 | 41.17740 | 2.47262 | 36181 ft | 426 kts | 172° |
| 2026-05-04 23:36 | 41.14881 | 2.48246 | 35576 ft | 424 kts | 172° |
| 2026-05-04 23:36 | 41.12030 | 2.49219 | 34837 ft | 425 kts | 172° |
| 2026-05-04 23:37 | 41.09153 | 2.50195 | 34044 ft | 428 kts | 172° |
| 2026-05-04 23:37 | 41.06270 | 2.51176 | 33280 ft | 429 kts | 172° |
| 2026-05-04 23:37 | 41.03375 | 2.52165 | 32501 ft | 430 kts | 172° |
| 2026-05-04 23:37 | 41.00478 | 2.53155 | 31699 ft | 431 kts | 172° |
| 2026-05-04 23:38 | 40.97574 | 2.54147 | 30864 ft | 432 kts | 172° |
| 2026-05-04 23:38 | 40.94662 | 2.55139 | 29994 ft | 433 kts | 172° |
| 2026-05-04 23:38 | 40.91731 | 2.56136 | 29084 ft | 435 kts | 172° |
| 2026-05-04 23:38 | 40.88797 | 2.57135 | 28117 ft | 437 kts | 172° |
| 2026-05-04 23:39 | 40.85847 | 2.58138 | 27079 ft | 440 kts | 172° |
| 2026-05-04 23:39 | 40.82874 | 2.59146 | 25955 ft | 443 kts | 172° |
| 2026-05-04 23:39 | 40.79875 | 2.60158 | 24783 ft | 447 kts | 172° |
| 2026-05-04 23:39 | 40.76850 | 2.61178 | 23683 ft | 449 kts | 171° |
| 2026-05-04 23:40 | 40.73840 | 2.62201 | 22844 ft | 445 kts | 171° |
| 2026-05-04 23:40 | 40.70861 | 2.63221 | 22027 ft | 440 kts | 171° |
| 2026-05-04 23:40 | 40.67907 | 2.64231 | 21256 ft | 436 kts | 171° |
| 2026-05-04 23:40 | 40.64973 | 2.65226 | 20504 ft | 432 kts | 171° |
| 2026-05-04 23:41 | 40.62073 | 2.66208 | 19783 ft | 427 kts | 171° |
| 2026-05-04 23:41 | 40.59209 | 2.67175 | 19049 ft | 423 kts | 171° |
| 2026-05-04 23:41 | 40.56365 | 2.68128 | 18321 ft | 420 kts | 171° |
| 2026-05-04 23:41 | 40.53551 | 2.69070 | 17627 ft | 416 kts | 171° |
| 2026-05-04 23:42 | 40.50773 | 2.70088 | 16922 ft | 415 kts | 166° |
| 2026-05-04 23:42 | 40.48124 | 2.71604 | 16232 ft | 417 kts | 157° |
| 2026-05-04 23:42 | 40.45599 | 2.73445 | 15533 ft | 413 kts | 156° |
| 2026-05-04 23:42 | 40.43097 | 2.75272 | 14841 ft | 410 kts | 156° |
| 2026-05-04 23:43 | 40.40639 | 2.77067 | 14573 ft | 396 kts | 156° |
| 2026-05-04 23:43 | 40.38288 | 2.78786 | 14442 ft | 380 kts | 156° |
| 2026-05-04 23:43 | 40.36026 | 2.80433 | 14315 ft | 364 kts | 156° |
| 2026-05-04 23:43 | 40.33847 | 2.82011 | 14188 ft | 351 kts | 157° |
| 2026-05-04 23:44 | 40.32449 | 2.83020 | 14104 ft | 342 kts | 157° |
| 2026-05-04 23:44 | 40.30409 | 2.84491 | 13970 ft | 324 kts | 157° |
| 2026-05-04 23:44 | 40.28494 | 2.85875 | 13758 ft | 306 kts | 158° |
| 2026-05-04 23:44 | 40.26651 | 2.87197 | 13265 ft | 299 kts | 158° |
| 2026-05-04 23:45 | 40.24824 | 2.88498 | 12864 ft | 298 kts | 158° |
| 2026-05-04 23:45 | 40.23011 | 2.89790 | 12546 ft | 295 kts | 158° |
| 2026-05-04 23:45 | 40.21214 | 2.91074 | 12209 ft | 294 kts | 158° |
| 2026-05-04 23:45 | 40.19423 | 2.92355 | 11874 ft | 292 kts | 158° |
| 2026-05-04 23:46 | 40.17645 | 2.93627 | 11538 ft | 291 kts | 158° |
| 2026-05-04 23:46 | 40.15873 | 2.94900 | 11173 ft | 290 kts | 157° |
| 2026-05-04 23:46 | 40.14110 | 2.96170 | 10812 ft | 289 kts | 157° |
| 2026-05-04 23:46 | 40.12349 | 2.97436 | 10440 ft | 289 kts | 157° |
| 2026-05-04 23:47 | 40.10592 | 2.98697 | 10042 ft | 288 kts | 157° |
| 2026-05-04 23:47 | 40.08829 | 2.99959 | 9654 ft | 288 kts | 156° |
| 2026-05-04 23:47 | 40.07071 | 3.01217 | 9272 ft | 288 kts | 156° |
| 2026-05-04 23:47 | 40.05318 | 3.02472 | 8890 ft | 287 kts | 156° |
| 2026-05-04 23:48 | 40.03572 | 3.03724 | 8508 ft | 286 kts | 156° |
| 2026-05-04 23:48 | 40.01832 | 3.04972 | 8131 ft | 285 kts | 156° |
| 2026-05-04 23:48 | 40.00103 | 3.06211 | 7750 ft | 283 kts | 156° |
| 2026-05-04 23:48 | 39.98384 | 3.07441 | 7365 ft | 281 kts | 157° |
| 2026-05-04 23:49 | 39.96671 | 3.08663 | 6971 ft | 280 kts | 157° |
| 2026-05-04 23:49 | 39.94963 | 3.09879 | 6585 ft | 279 kts | 157° |
| 2026-05-04 23:49 | 39.93205 | 3.10865 | 6195 ft | 271 kts | 170° |
| 2026-05-04 23:49 | 39.91373 | 3.11234 | 5822 ft | 264 kts | 184° |
| 2026-05-04 23:50 | 39.89563 | 3.11075 | 5387 ft | 260 kts | 190° |
| 2026-05-04 23:50 | 39.87768 | 3.10844 | 4990 ft | 258 kts | 189° |
| 2026-05-04 23:50 | 39.86020 | 3.10626 | 4838 ft | 247 kts | 189° |
| 2026-05-04 23:50 | 39.84325 | 3.10422 | 4699 ft | 236 kts | 189° |
| 2026-05-04 23:51 | 39.82750 | 3.10233 | 4462 ft | 226 kts | 189° |
| 2026-05-04 23:51 | 39.81169 | 3.10039 | 4100 ft | 225 kts | 189° |
| 2026-05-04 23:51 | 39.79635 | 3.09847 | 3775 ft | 224 kts | 189° |
| 2026-05-04 23:51 | 39.78071 | 3.09651 | 3446 ft | 223 kts | 188° |
| 2026-05-04 23:52 | 39.76531 | 3.09458 | 3128 ft | 221 kts | 188° |
| 2026-05-04 23:52 | 39.75021 | 3.09269 | 2800 ft | 221 kts | 188° |
| 2026-05-04 23:52 | 39.73477 | 3.09075 | 2549 ft | 219 kts | 187° |
| 2026-05-04 23:52 | 39.71975 | 3.08766 | 2504 ft | 219 kts | 200° |
| 2026-05-04 23:53 | 39.70656 | 3.07819 | 2503 ft | 217 kts | 221° |
| 2026-05-04 23:53 | 39.69708 | 3.06330 | 2508 ft | 218 kts | 238° |
| 2026-05-04 23:53 | 39.68921 | 3.04641 | 2506 ft | 219 kts | 238° |
| 2026-05-04 23:53 | 39.68121 | 3.02927 | 2504 ft | 219 kts | 238° |
| 2026-05-04 23:54 | 39.67333 | 3.01242 | 2504 ft | 218 kts | 238° |
| 2026-05-04 23:54 | 39.66543 | 2.99557 | 2504 ft | 219 kts | 238° |
| 2026-05-04 23:54 | 39.65761 | 2.97888 | 2500 ft | 210 kts | 238° |
| 2026-05-04 23:54 | 39.65025 | 2.96320 | 2500 ft | 197 kts | 238° |
| 2026-05-04 23:55 | 39.64323 | 2.94824 | 2514 ft | 191 kts | 238° |
| 2026-05-04 23:55 | 39.63636 | 2.93360 | 2517 ft | 189 kts | 238° |
| 2026-05-04 23:55 | 39.62270 | 2.90454 | 2456 ft | 189 kts | 238° |
| 2026-05-04 23:56 | 39.61585 | 2.88995 | 2263 ft | 189 kts | 237° |
| 2026-05-04 23:56 | 39.60902 | 2.87545 | 2033 ft | 186 kts | 238° |
| 2026-05-04 23:56 | 39.60250 | 2.86160 | 1798 ft | 172 kts | 238° |
| 2026-05-04 23:56 | 39.59665 | 2.84915 | 1581 ft | 154 kts | 238° |
| 2026-05-04 23:57 | 39.59128 | 2.83775 | 1377 ft | 145 kts | 238° |
| 2026-05-04 23:57 | 39.58611 | 2.82678 | 1198 ft | 141 kts | 238° |
| 2026-05-04 23:57 | 39.58101 | 2.81602 | 1021 ft | 139 kts | 238° |
| 2026-05-04 23:57 | 39.57596 | 2.80531 | 826 ft | 141 kts | 238° |
| 2026-05-04 23:58 | 39.57089 | 2.79442 | 640 ft | 141 kts | 238° |
| 2026-05-04 23:58 | 39.56573 | 2.78354 | 458 ft | 142 kts | 237° |
| 2026-05-04 23:58 | 39.56059 | 2.77268 | 277 ft | 141 kts | 238° |
| 2026-05-04 23:58 | 39.55552 | 2.76181 | 87 ft | 140 kts | 238° |
| 2026-05-04 23:59 | 39.55088 | 2.75179 | 37 ft | 105 kts | 238° |
| 2026-05-04 23:59 | 39.54855 | 2.74693 | 38 ft | 31 kts | 255° |
| 2026-05-04 23:59 | 39.54807 | 2.74439 | 38 ft | 29 kts | 259° |
| 2026-05-04 23:59 | 39.54796 | 2.74281 | 37 ft | 9 kts | 268° |
| 2026-05-05 00:00 | 39.54795 | 2.74223 | 37 ft | 0 kts | 268° |
| 2026-05-05 00:00 | 39.54793 | 2.74175 | 38 ft | 10 kts | 263° |
| 2026-05-05 00:00 | 39.54768 | 2.74084 | 38 ft | 13 kts | 244° |
| 2026-05-05 00:01 | 39.54714 | 2.73967 | 38 ft | 16 kts | 239° |
| 2026-05-05 00:01 | 39.54654 | 2.73840 | 38 ft | 17 kts | 239° |
| 2026-05-05 00:01 | 39.54593 | 2.73710 | 38 ft | 14 kts | 239° |
| 2026-05-05 00:01 | 39.54615 | 2.73625 | 38 ft | 11 kts | 334° |
| 2026-05-05 00:02 | 39.54679 | 2.73604 | 38 ft | 8 kts | 12° |
| 2026-05-05 00:02 | 39.54707 | 2.73648 | 36 ft | 5 kts | 58° |
| 2026-05-05 00:02 | 39.54716 | 2.73666 | 37 ft | 0 kts | 57° |